4XELI LLBS-LLMZ
Flight info
| Callsign | 4XELI |
|---|---|
| Flight time | 0h 25m |
| Altitude | 4000 |
| Route | NCITY OMMER SOKET MYTAR TARAD ARRAD LLMZ |
| Aircraft | C172/L-SD/C |
Departure
| Time | 2026-05-05 17:53 |
|---|---|
| Airport | Beersheba (Teyman) Airport (LLBS) |
Arrival
| Time | 2026-05-05 18:18 |
|---|---|
| Airport | Bar Yehuda Airfield (LLMZ) |
| Time | Latitude | Longitude | Altitude | Speed | Heading |
|---|---|---|---|---|---|
| 2026-05-05 17:46 | 31.28671 | 34.72464 | 650 ft | 0 kts | 232° |
| 2026-05-05 17:50 | 31.28620 | 34.72408 | 651 ft | 9 kts | 213° |
| 2026-05-05 17:50 | 31.28603 | 34.72393 | 651 ft | 0 kts | 225° |
| 2026-05-05 17:51 | 31.28590 | 34.72359 | 651 ft | 9 kts | 293° |
| 2026-05-05 17:51 | 31.28747 | 34.72185 | 644 ft | 51 kts | 318° |
| 2026-05-05 17:51 | 31.29083 | 34.71835 | 708 ft | 66 kts | 316° |
| 2026-05-05 17:52 | 31.29408 | 34.71515 | 828 ft | 62 kts | 312° |
| 2026-05-05 17:52 | 31.29768 | 34.71266 | 918 ft | 66 kts | 347° |
| 2026-05-05 17:52 | 31.30219 | 34.71442 | 1015 ft | 68 kts | 9° |
| 2026-05-05 17:52 | 31.30674 | 34.71611 | 1065 ft | 74 kts | 5° |
| 2026-05-05 17:53 | 31.31162 | 34.71788 | 1165 ft | 74 kts | 25° |
| 2026-05-05 17:53 | 31.31568 | 34.72161 | 1273 ft | 74 kts | 38° |
| 2026-05-05 17:53 | 31.31700 | 34.72763 | 1340 ft | 80 kts | 102° |
| 2026-05-05 17:53 | 31.31527 | 34.73370 | 1416 ft | 81 kts | 110° |
| 2026-05-05 17:54 | 31.31411 | 34.73995 | 1499 ft | 82 kts | 100° |
| 2026-05-05 17:54 | 31.31280 | 34.74637 | 1566 ft | 84 kts | 109° |
| 2026-05-05 17:54 | 31.31006 | 34.75158 | 1672 ft | 78 kts | 128° |
| 2026-05-05 17:54 | 31.30703 | 34.75696 | 1748 ft | 78 kts | 122° |
| 2026-05-05 17:55 | 31.30407 | 34.76228 | 1830 ft | 77 kts | 126° |
| 2026-05-05 17:55 | 31.30121 | 34.76767 | 1893 ft | 79 kts | 123° |
| 2026-05-05 17:55 | 31.29838 | 34.77317 | 1950 ft | 83 kts | 118° |
| 2026-05-05 17:55 | 31.29573 | 34.77968 | 1991 ft | 89 kts | 113° |
| 2026-05-05 17:56 | 31.29345 | 34.78624 | 2125 ft | 81 kts | 108° |
| 2026-05-05 17:56 | 31.29165 | 34.79230 | 2221 ft | 77 kts | 102° |
| 2026-05-05 17:56 | 31.28972 | 34.79941 | 2184 ft | 94 kts | 116° |
| 2026-05-05 17:56 | 31.28591 | 34.80573 | 2166 ft | 107 kts | 131° |
| 2026-05-05 17:57 | 31.28044 | 34.81099 | 2285 ft | 100 kts | 145° |
| 2026-05-05 17:57 | 31.27527 | 34.81647 | 2424 ft | 94 kts | 130° |
| 2026-05-05 17:57 | 31.27173 | 34.82259 | 2554 ft | 89 kts | 121° |
| 2026-05-05 17:57 | 31.26892 | 34.82863 | 2620 ft | 90 kts | 115° |
| 2026-05-05 17:58 | 31.26799 | 34.83545 | 2719 ft | 82 kts | 78° |
| 2026-05-05 17:58 | 31.26930 | 34.84178 | 2751 ft | 84 kts | 64° |
| 2026-05-05 17:58 | 31.27144 | 34.84848 | 2764 ft | 89 kts | 61° |
| 2026-05-05 17:58 | 31.27403 | 34.85497 | 2834 ft | 90 kts | 58° |
| 2026-05-05 17:59 | 31.27644 | 34.86142 | 2950 ft | 84 kts | 61° |
| 2026-05-05 17:59 | 31.27916 | 34.86834 | 2879 ft | 103 kts | 56° |
| 2026-05-05 17:59 | 31.28284 | 34.87598 | 2954 ft | 99 kts | 50° |
| 2026-05-05 17:59 | 31.28619 | 34.88238 | 3099 ft | 93 kts | 62° |
| 2026-05-05 18:00 | 31.28789 | 34.88953 | 3209 ft | 89 kts | 80° |
| 2026-05-05 18:00 | 31.28911 | 34.89629 | 3308 ft | 84 kts | 70° |
| 2026-05-05 18:00 | 31.29008 | 34.90284 | 3386 ft | 82 kts | 81° |
| 2026-05-05 18:00 | 31.29045 | 34.91010 | 3407 ft | 89 kts | 96° |
| 2026-05-05 18:01 | 31.28887 | 34.91734 | 3463 ft | 89 kts | 114° |
| 2026-05-05 18:01 | 31.28600 | 34.92358 | 3540 ft | 87 kts | 118° |
| 2026-05-05 18:01 | 31.28289 | 34.92985 | 3560 ft | 94 kts | 117° |
| 2026-05-05 18:01 | 31.27976 | 34.93707 | 3574 ft | 101 kts | 117° |
| 2026-05-05 18:02 | 31.27660 | 34.94453 | 3608 ft | 106 kts | 116° |
| 2026-05-05 18:02 | 31.27442 | 34.95293 | 3643 ft | 111 kts | 104° |
| 2026-05-05 18:02 | 31.27245 | 34.96191 | 3647 ft | 117 kts | 105° |
| 2026-05-05 18:02 | 31.27009 | 34.97076 | 3712 ft | 114 kts | 112° |
| 2026-05-05 18:03 | 31.26757 | 34.97974 | 3750 ft | 117 kts | 109° |
| 2026-05-05 18:03 | 31.26506 | 34.98917 | 3684 ft | 124 kts | 107° |
| 2026-05-05 18:03 | 31.26515 | 34.99919 | 3655 ft | 121 kts | 78° |
| 2026-05-05 18:03 | 31.26645 | 35.00919 | 3495 ft | 122 kts | 84° |
| 2026-05-05 18:04 | 31.26680 | 35.01886 | 3505 ft | 119 kts | 88° |
| 2026-05-05 18:04 | 31.26627 | 35.02816 | 3513 ft | 116 kts | 106° |
| 2026-05-05 18:04 | 31.26373 | 35.03678 | 3542 ft | 112 kts | 113° |
| 2026-05-05 18:04 | 31.26094 | 35.04545 | 3539 ft | 116 kts | 114° |
| 2026-05-05 18:05 | 31.25830 | 35.05441 | 3565 ft | 116 kts | 107° |
| 2026-05-05 18:05 | 31.25782 | 35.06386 | 3562 ft | 120 kts | 76° |
| 2026-05-05 18:05 | 31.26007 | 35.07301 | 3618 ft | 112 kts | 70° |
| 2026-05-05 18:05 | 31.26289 | 35.08203 | 3596 ft | 117 kts | 65° |
| 2026-05-05 18:06 | 31.26564 | 35.09091 | 3599 ft | 119 kts | 73° |
| 2026-05-05 18:06 | 31.26649 | 35.09730 | 3599 ft | 121 kts | 81° |
| 2026-05-05 18:06 | 31.26834 | 35.10996 | 3572 ft | 119 kts | 84° |
| 2026-05-05 18:06 | 31.26834 | 35.11967 | 3547 ft | 117 kts | 93° |
| 2026-05-05 18:07 | 31.26776 | 35.12913 | 3532 ft | 117 kts | 100° |
| 2026-05-05 18:07 | 31.26553 | 35.13818 | 3529 ft | 116 kts | 119° |
| 2026-05-05 18:07 | 31.26186 | 35.14671 | 3526 ft | 117 kts | 117° |
| 2026-05-05 18:07 | 31.25876 | 35.15544 | 3539 ft | 117 kts | 115° |
| 2026-05-05 18:08 | 31.25590 | 35.16419 | 3571 ft | 114 kts | 110° |
| 2026-05-05 18:08 | 31.25379 | 35.17342 | 3557 ft | 118 kts | 104° |
| 2026-05-05 18:08 | 31.25218 | 35.18270 | 3536 ft | 119 kts | 103° |
| 2026-05-05 18:08 | 31.25059 | 35.19235 | 3533 ft | 119 kts | 91° |
| 2026-05-05 18:09 | 31.25239 | 35.20150 | 3630 ft | 112 kts | 58° |
| 2026-05-05 18:09 | 31.25599 | 35.20946 | 3679 ft | 114 kts | 55° |
| 2026-05-05 18:09 | 31.25990 | 35.21724 | 3783 ft | 109 kts | 48° |
| 2026-05-05 18:09 | 31.26321 | 35.22501 | 3830 ft | 112 kts | 60° |
| 2026-05-05 18:10 | 31.26632 | 35.23283 | 4006 ft | 98 kts | 52° |
| 2026-05-05 18:10 | 31.26980 | 35.24002 | 4022 ft | 104 kts | 57° |
| 2026-05-05 18:10 | 31.27362 | 35.24739 | 4043 ft | 109 kts | 54° |
| 2026-05-05 18:10 | 31.27742 | 35.25545 | 4058 ft | 115 kts | 57° |
| 2026-05-05 18:11 | 31.28129 | 35.26381 | 4073 ft | 119 kts | 58° |
| 2026-05-05 18:11 | 31.28522 | 35.27237 | 4105 ft | 121 kts | 59° |
| 2026-05-05 18:11 | 31.28912 | 35.28137 | 4078 ft | 124 kts | 58° |
| 2026-05-05 18:11 | 31.29316 | 35.29030 | 3946 ft | 127 kts | 57° |
| 2026-05-05 18:12 | 31.29736 | 35.29950 | 3862 ft | 128 kts | 58° |
| 2026-05-05 18:12 | 31.30104 | 35.30842 | 4036 ft | 113 kts | 64° |
| 2026-05-05 18:12 | 31.30436 | 35.31758 | 3920 ft | 124 kts | 66° |
| 2026-05-05 18:12 | 31.30730 | 35.32673 | 3987 ft | 123 kts | 63° |
| 2026-05-05 18:13 | 31.31059 | 35.33541 | 4031 ft | 88 kts | 66° |
| 2026-05-05 18:13 | 31.31275 | 35.34194 | 3683 ft | 94 kts | 66° |
| 2026-05-05 18:13 | 31.31481 | 35.34925 | 3227 ft | 101 kts | 73° |
| 2026-05-05 18:13 | 31.31636 | 35.35723 | 2693 ft | 111 kts | 82° |
| 2026-05-05 18:14 | 31.31621 | 35.36661 | 1836 ft | 125 kts | 94° |
| 2026-05-05 18:14 | 31.31677 | 35.37639 | 1028 ft | 123 kts | 73° |
| 2026-05-05 18:14 | 31.32013 | 35.38429 | 491 ft | 100 kts | 31° |
| 2026-05-05 18:14 | 31.32561 | 35.38780 | 158 ft | 87 kts | 3° |
| 2026-05-05 18:15 | 31.33113 | 35.39092 | -195 ft | 93 kts | 37° |
| 2026-05-05 18:15 | 31.33422 | 35.39651 | -286 ft | 81 kts | 61° |
| 2026-05-05 18:15 | 31.33450 | 35.40385 | -515 ft | 107 kts | 104° |
| 2026-05-05 18:15 | 31.32993 | 35.40923 | -413 ft | 105 kts | 162° |
| 2026-05-05 18:16 | 31.32291 | 35.40859 | -296 ft | 96 kts | 207° |
| 2026-05-05 18:16 | 31.31636 | 35.40552 | -359 ft | 103 kts | 201° |
| 2026-05-05 18:16 | 31.31007 | 35.40295 | -364 ft | 92 kts | 200° |
| 2026-05-05 18:16 | 31.30585 | 35.39853 | -465 ft | 80 kts | 226° |
| 2026-05-05 18:17 | 31.30357 | 35.39323 | -678 ft | 68 kts | 264° |
| 2026-05-05 18:17 | 31.30525 | 35.38819 | -831 ft | 66 kts | 307° |
| 2026-05-05 18:17 | 31.30953 | 35.38602 | -867 ft | 67 kts | 335° |
| 2026-05-05 18:17 | 31.31414 | 35.38596 | -896 ft | 72 kts | 355° |
| 2026-05-05 18:18 | 31.31937 | 35.38687 | -1060 ft | 76 kts | 3° |
| 2026-05-05 18:18 | 31.32421 | 35.38770 | -1245 ft | 60 kts | 2° |
| 2026-05-05 18:18 | 31.32661 | 35.38826 | -1248 ft | 10 kts | 354° |
| 2026-05-05 18:18 | 31.32544 | 35.38791 | -1254 ft | 23 kts | 189° |
| 2026-05-05 18:19 | 31.32521 | 35.38740 | -1254 ft | 2 kts | 303° |
| 2026-05-05 18:19 | 31.32524 | 35.38727 | -1254 ft | 0 kts | 106° |